Time;durP1;ratioP1;P1;durP2;ratioP2;P2;SDS_P1;SDS_P2;PMS_P1;PMS_P2;Temp;Humidity;BMP_temperature;BMP_pressure;BME280_temperature;BME280_humidity;BME280_pressure;Samples;Min_cycle;Max_cycle;Signal;HPM_P1;HPM_P2
2023/07/07 00:01:25;;;;;;;;;;;;;;;;;;5012222;28;19945;-61
2023/07/07 00:03:50;;;;;;;;;;;;;;;;;;5013564;28;20237;-62
2023/07/07 00:06:15;;;;;;;;;;;;;;;;;;5011681;28;19918;-61
2023/07/07 00:08:40;;;;;;;;;;;;;;;;;;5013303;28;19909;-62
2023/07/07 00:11:05;;;;;;;;;;;;;;;;;;5013122;28;19913;-62
2023/07/07 00:13:30;;;;;;;;;;;;;;;;;;5012022;28;20409;-62
2023/07/07 00:15:56;;;;;;;;;;;;;;;;;;5012943;28;19913;-62
2023/07/07 00:18:27;;;;;;;;;;;;;;;;;;5011170;28;19924;-62
2023/07/07 00:20:52;;;;;;;;;;;;;;;;;;5013134;28;19909;-63
2023/07/07 00:23:17;;;;;;;;;;;;;;;;;;5011193;28;19916;-63
2023/07/07 00:25:42;;;;;;;;;;;;;;;;;;5013158;28;19909;-63
2023/07/07 00:28:07;;;;;;;;;;;;;;;;;;5010269;28;20029;-63
2023/07/07 00:30:32;;;;;;;;;;;;;;;;;;5012701;28;19910;-65
2023/07/07 00:32:57;;;;;;;;;;;;;;;;;;5011478;28;19909;-65
2023/07/07 00:35:22;;;;;;;;;;;;;;;;;;5012881;28;20368;-65
2023/07/07 00:37:47;;;;;;;;;;;;;;;;;;5011277;28;20002;-65
2023/07/07 00:40:13;;;;;;;;;;;;;;;;;;5012896;28;19911;-65
2023/07/07 00:42:38;;;;;;;;;;;;;;;;;;5011470;28;19914;-64
2023/07/07 00:45:03;;;;;;;;;;;;;;;;;;5012084;28;19909;-65
2023/07/07 00:47:28;;;;;;;;;;;;;;;;;;5011654;28;19984;-64
2023/07/07 00:49:53;;;;;;;;;;;;;;;;;;5012329;28;19909;-63
2023/07/07 00:52:18;;;;;;;;;;;;;;;;;;5011294;28;19910;-63
2023/07/07 00:54:43;;;;;;;;;;;;;;;;;;5012528;28;19937;-63
2023/07/07 00:57:08;;;;;;;;;;;;;;;;;;5010622;28;19909;-63
2023/07/07 00:59:33;;;;;;;;;;;;;;;;;;5012212;28;19905;-64
2023/07/07 01:01:58;;;;;;;;;;;;;;;;;;5010639;28;19920;-64
2023/07/07 01:04:23;;;;;;;;;;;;;;;;;;5012241;28;19944;-62
2023/07/07 01:06:48;;;;;;;;;;;;;;;;;;5010676;28;20364;-64
2023/07/07 01:09:14;;;;;;;;;;;;;;;;;;5012184;28;19960;-64
2023/07/07 01:11:39;;;;;;;;;;;;;;;;;;5011176;28;19910;-64
2023/07/07 01:14:04;;;;;;;;;;;;;;;;;;5011774;28;19988;-64
2023/07/07 01:16:29;;;;;;;;;;;;;;;;;;5011104;28;19917;-63
2023/07/07 01:18:54;;;;;;;;;;;;;;;;;;5011693;28;20274;-63
2023/07/07 01:21:19;;;;;;;;;;;;;;;;;;5010675;28;19905;-63
2023/07/07 01:23:44;;;;;;;;;;;;;;;;;;5012207;28;19901;-64
2023/07/07 01:26:09;;;;;;;;;;;;;;;;;;5010453;28;20360;-59
2023/07/07 01:28:34;;;;;;;;;;;;;;;;;;5012108;28;20406;-63
2023/07/07 01:31:00;;;;;;;;;;;;;;;;;;5011227;28;19917;-63
2023/07/07 01:33:25;;;;;;;;;;;;;;;;;;5010502;28;19964;-63
2023/07/07 01:35:50;;;;;;;;;;;;;;;;;;5012273;28;20369;-62
2023/07/07 01:38:15;;;;;;;;;;;;;;;;;;5009975;28;20365;-63
2023/07/07 01:40:40;;;;;;;;;;;;;;;;;;5011975;28;19912;-63
2023/07/07 01:43:05;;;;;;;;;;;;;;;;;;5010371;28;19910;-64
2023/07/07 01:45:30;;;;;;;;;;;;;;;;;;5010136;28;19905;-63
2023/07/07 01:47:55;;;;;;;;;;;;;;;;;;5009939;28;20401;-63
2023/07/07 01:50:20;;;;;;;;;;;;;;;;;;5011319;28;20008;-63
2023/07/07 01:52:45;;;;;;;;;;;;;;;;;;5010155;28;19917;-63
2023/07/07 01:55:11;;;;;;;;;;;;;;;;;;5011627;28;20353;-63
2023/07/07 01:57:36;;;;;;;;;;;;;;;;;;5010351;28;19910;-63
2023/07/07 02:00:01;;;;;;;;;;;;;;;;;;5011172;28;20418;-63
2023/07/07 02:02:26;;;;;;;;;;;;;;;;;;5010262;28;19917;-62
2023/07/07 02:04:51;;;;;;;;;;;;;;;;;;5011172;28;19933;-62
2023/07/07 02:07:17;;;;;;;;;;;;;;;;;;5010017;28;19935;-62
2023/07/07 02:09:42;;;;;;;;;;;;;;;;;;5011687;28;19909;-63
2023/07/07 02:12:07;;;;;;;;;;;;;;;;;;5009998;28;19910;-62
2023/07/07 02:14:32;;;;;;;;;;;;;;;;;;5011086;28;19967;-63
2023/07/07 02:16:57;;;;;;;;;;;;;;;;;;5010031;28;20004;-63
2023/07/07 02:19:22;;;;;;;;;;;;;;;;;;5011684;28;19920;-67
2023/07/07 02:21:47;;;;;;;;;;;;;;;;;;5009826;28;20343;-62
2023/07/07 02:24:12;;;;;;;;;;;;;;;;;;5011296;28;19909;-62
2023/07/07 02:26:37;;;;;;;;;;;;;;;;;;5010173;28;19996;-62
2023/07/07 02:29:02;;;;;;;;;;;;;;;;;;5010664;28;20279;-62
2023/07/07 02:31:27;;;;;;;;;;;;;;;;;;5010020;28;19956;-61
2023/07/07 02:33:53;;;;;;;;;;;;;;;;;;5011322;28;20568;-62
2023/07/07 02:36:18;;;;;;;;;;;;;;;;;;5009949;28;19905;-61
2023/07/07 02:38:43;;;;;;;;;;;;;;;;;;5011296;28;19906;-62
2023/07/07 02:41:08;;;;;;;;;;;;;;;;;;5009764;28;20000;-61
2023/07/07 02:43:34;;;;;;;;;;;;;;;;;;5013909;28;19963;-62
2023/07/07 02:45:59;;;;;;;;;;;;;;;;;;5014627;28;19963;-62
2023/07/07 02:48:24;;;;;;;;;;;;;;;;;;5013620;28;19916;-61
2023/07/07 02:50:49;;;;;;;;;;;;;;;;;;5014425;28;19963;-61
2023/07/07 02:53:14;;;;;;;;;;;;;;;;;;5013272;28;19933;-62
2023/07/07 02:55:39;;;;;;;;;;;;;;;;;;5014815;28;19910;-61
2023/07/07 02:58:04;;;;;;;;;;;;;;;;;;5012835;28;19909;-62
2023/07/07 03:00:29;;;;;;;;;;;;;;;;;;5014794;28;19905;-61
2023/07/07 03:02:54;;;;;;;;;;;;;;;;;;5013139;28;20325;-61
2023/07/07 03:05:19;;;;;;;;;;;;;;;;;;5013989;28;20356;-61
2023/07/07 03:07:44;;;;;;;;;;;;;;;;;;5013404;28;19914;-61
2023/07/07 03:10:09;;;;;;;;;;;;;;;;;;5012899;28;19964;-61
2023/07/07 03:12:35;;;;;;;;;;;;;;;;;;5012891;28;20304;-61
2023/07/07 03:15:00;;;;;;;;;;;;;;;;;;5014270;28;20008;-62
2023/07/07 03:17:25;;;;;;;;;;;;;;;;;;5013024;28;19925;-61
2023/07/07 03:19:51;;;;;;;;;;;;;;;;;;5014302;28;19905;-62
2023/07/07 03:22:16;;;;;;;;;;;;;;;;;;5012943;28;19916;-61
2023/07/07 03:24:41;;;;;;;;;;;;;;;;;;5014350;28;19912;-61
2023/07/07 03:27:06;;;;;;;;;;;;;;;;;;5012303;28;20064;-62
2023/07/07 03:29:31;;;;;;;;;;;;;;;;;;5013991;28;19920;-60
2023/07/07 03:31:56;;;;;;;;;;;;;;;;;;5012380;28;19910;-60
2023/07/07 03:34:21;;;;;;;;;;;;;;;;;;5014076;28;19949;-60
2023/07/07 03:36:46;;;;;;;;;;;;;;;;;;5012666;28;20004;-60
2023/07/07 03:39:11;;;;;;;;;;;;;;;;;;5013882;28;19913;-61
2023/07/07 03:41:36;;;;;;;;;;;;;;;;;;5012679;28;20318;-60
2023/07/07 03:44:01;;;;;;;;;;;;;;;;;;5013328;28;20021;-60
2023/07/07 03:46:26;;;;;;;;;;;;;;;;;;5012724;28;19910;-61
2023/07/07 03:48:53;;;;;;;;;;;;;;;;;;5013769;28;20540;-61
2023/07/07 03:51:18;;;;;;;;;;;;;;;;;;5012350;28;19948;-61
2023/07/07 03:53:43;;;;;;;;;;;;;;;;;;5013504;28;19949;-61
2023/07/07 03:56:08;;;;;;;;;;;;;;;;;;5012242;28;19905;-61
2023/07/07 03:58:33;;;;;;;;;;;;;;;;;;5013268;28;19909;-61
2023/07/07 04:00:58;;;;;;;;;;;;;;;;;;5013558;28;19912;-60
2023/07/07 04:03:24;;;;;;;;;;;;;;;;;;5011743;28;19944;-62
2023/07/07 04:05:49;;;;;;;;;;;;;;;;;;5013083;28;20395;-62
2023/07/07 04:08:15;;;;;;;;;;;;;;;;;;5011925;28;19909;-62
2023/07/07 04:10:40;;;;;;;;;;;;;;;;;;5012943;28;19914;-64
2023/07/07 04:13:05;;;;;;;;;;;;;;;;;;5010440;28;19920;-62
2023/07/07 04:15:31;;;;;;;;;;;;;;;;;;5013307;28;19909;-62
2023/07/07 04:17:56;;;;;;;;;;;;;;;;;;5011652;28;19909;-62
2023/07/07 04:20:21;;;;;;;;;;;;;;;;;;5013038;28;20008;-62
2023/07/07 04:22:46;;;;;;;;;;;;;;;;;;5011370;28;19909;-62
2023/07/07 04:25:11;;;;;;;;;;;;;;;;;;5012622;28;20006;-62
2023/07/07 04:27:36;;;;;;;;;;;;;;;;;;5011342;28;19941;-62
2023/07/07 04:30:03;;;;;;;;;;;;;;;;;;5012799;28;20360;-63
2023/07/07 04:32:28;;;;;;;;;;;;;;;;;;5011369;28;19921;-62
2023/07/07 04:34:53;;;;;;;;;;;;;;;;;;5012462;28;19906;-62
2023/07/07 04:37:18;;;;;;;;;;;;;;;;;;5011808;28;19914;-63
2023/07/07 04:39:43;;;;;;;;;;;;;;;;;;5012915;28;20287;-62
2023/07/07 04:42:08;;;;;;;;;;;;;;;;;;5010778;28;19999;-63
2023/07/07 04:44:33;;;;;;;;;;;;;;;;;;5012920;28;19913;-63
2023/07/07 04:46:58;;;;;;;;;;;;;;;;;;5011167;28;20364;-62
2023/07/07 04:49:23;;;;;;;;;;;;;;;;;;5012219;28;19909;-63
2023/07/07 04:51:49;;;;;;;;;;;;;;;;;;5011366;28;20001;-63
2023/07/07 04:54:14;;;;;;;;;;;;;;;;;;5012486;28;20356;-62
2023/07/07 04:56:39;;;;;;;;;;;;;;;;;;5010946;28;19909;-64
2023/07/07 04:59:04;;;;;;;;;;;;;;;;;;5012591;28;19940;-63
2023/07/07 05:01:29;;;;;;;;;;;;;;;;;;5011390;28;19996;-63
2023/07/07 05:03:54;;;;;;;;;;;;;;;;;;5012140;28;20044;-62
2023/07/07 05:06:19;;;;;;;;;;;;;;;;;;5010276;28;19917;-62
2023/07/07 05:08:44;;;;;;;;;;;;;;;;;;5012445;28;20355;-62
2023/07/07 05:11:09;;;;;;;;;;;;;;;;;;5010212;28;19909;-61
2023/07/07 05:13:35;;;;;;;;;;;;;;;;;;5012323;28;19906;-62
2023/07/07 05:16:00;;;;;;;;;;;;;;;;;;5012232;28;19905;-62
2023/07/07 05:18:25;;;;;;;;;;;;;;;;;;5010549;28;20423;-62
2023/07/07 05:20:50;;;;;;;;;;;;;;;;;;5012230;28;19905;-62
2023/07/07 05:23:15;;;;;;;;;;;;;;;;;;5010495;28;19914;-62
2023/07/07 05:25:40;;;;;;;;;;;;;;;;;;5011866;28;19909;-62
2023/07/07 05:28:05;;;;;;;;;;;;;;;;;;5010477;28;19913;-62
2023/07/07 05:30:30;;;;;;;;;;;;;;;;;;5012159;28;19910;-62
2023/07/07 05:32:55;;;;;;;;;;;;;;;;;;5010172;28;19949;-62
2023/07/07 05:35:20;;;;;;;;;;;;;;;;;;5012098;28;20307;-62
2023/07/07 05:37:45;;;;;;;;;;;;;;;;;;5010496;28;19916;-62
2023/07/07 05:40:10;;;;;;;;;;;;;;;;;;5011858;28;19920;-62
2023/07/07 05:42:36;;;;;;;;;;;;;;;;;;5010331;28;19910;-62
2023/07/07 05:45:01;;;;;;;;;;;;;;;;;;5011614;28;19912;-62
2023/07/07 05:47:26;;;;;;;;;;;;;;;;;;5010379;28;19932;-62
2023/07/07 05:49:51;;;;;;;;;;;;;;;;;;5011243;28;20012;-62
2023/07/07 05:52:16;;;;;;;;;;;;;;;;;;5010177;28;19909;-62
2023/07/07 05:54:41;;;;;;;;;;;;;;;;;;5011034;28;19909;-62
2023/07/07 05:57:06;;;;;;;;;;;;;;;;;;5009790;28;19948;-62
2023/07/07 05:59:31;;;;;;;;;;;;;;;;;;5011741;28;20303;-62
2023/07/07 06:01:56;;;;;;;;;;;;;;;;;;5010034;28;19932;-62
2023/07/07 06:04:21;;;;;;;;;;;;;;;;;;5011471;28;19949;-61
2023/07/07 06:06:46;;;;;;;;;;;;;;;;;;5008406;28;19918;-62
2023/07/07 06:09:12;;;;;;;;;;;;;;;;;;5010749;28;20411;-62
2023/07/07 06:11:37;;;;;;;;;;;;;;;;;;5009597;28;19917;-62
2023/07/07 06:14:02;;;;;;;;;;;;;;;;;;5011464;28;19911;-62
2023/07/07 06:16:27;;;;;;;;;;;;;;;;;;5010109;28;19917;-62
2023/07/07 06:18:52;;;;;;;;;;;;;;;;;;5015024;28;19909;-62
2023/07/07 06:21:17;;;;;;;;;;;;;;;;;;5014182;28;19905;-61
2023/07/07 06:23:42;;;;;;;;;;;;;;;;;;5015272;28;20399;-61
2023/07/07 06:26:07;;;;;;;;;;;;;;;;;;5013140;28;20015;-60
2023/07/07 06:28:32;;;;;;;;;;;;;;;;;;5015210;28;20276;-62
2023/07/07 06:30:57;;;;;;;;;;;;;;;;;;5015197;28;19995;-62
2023/07/07 06:33:23;;;;;;;;;;;;;;;;;;5013514;28;19961;-62
2023/07/07 06:35:48;;;;;;;;;;;;;;;;;;5015180;28;19909;-62
2023/07/07 06:38:13;;;;;;;;;;;;;;;;;;5013476;28;20380;-62
2023/07/07 06:40:38;;;;;;;;;;;;;;;;;;5014903;28;19960;-62
2023/07/07 06:43:03;;;;;;;;;;;;;;;;;;5013567;28;19910;-62
2023/07/07 06:45:28;;;;;;;;;;;;;;;;;;5014917;28;19905;-61
2023/07/07 06:47:53;;;;;;;;;;;;;;;;;;5013029;28;19930;-62
2023/07/07 06:50:20;;;;;;;;;;;;;;;;;;5014920;28;19910;-62
2023/07/07 06:52:45;;;;;;;;;;;;;;;;;;5013381;28;19909;-62
2023/07/07 06:55:10;;;;;;;;;;;;;;;;;;5014351;28;19911;-62
2023/07/07 06:57:35;;;;;;;;;;;;;;;;;;5013633;28;20330;-62
2023/07/07 07:00:00;;;;;;;;;;;;;;;;;;5014459;28;19913;-62
2023/07/07 07:02:25;;;;;;;;;;;;;;;;;;5012920;28;19996;-62
2023/07/07 07:04:50;;;;;;;;;;;;;;;;;;5014654;28;20329;-62
2023/07/07 07:07:15;;;;;;;;;;;;;;;;;;5012926;28;19924;-62
2023/07/07 07:09:40;;;;;;;;;;;;;;;;;;5014221;28;19960;-62
2023/07/07 07:12:05;;;;;;;;;;;;;;;;;;5013054;28;20549;-62
2023/07/07 07:14:30;;;;;;;;;;;;;;;;;;5014488;28;19905;-62
2023/07/07 07:16:55;;;;;;;;;;;;;;;;;;5012644;28;19910;-62
2023/07/07 07:19:20;;;;;;;;;;;;;;;;;;5014647;28;19912;-62
2023/07/07 07:21:46;;;;;;;;;;;;;;;;;;5012950;28;20323;-62
2023/07/07 07:24:11;;;;;;;;;;;;;;;;;;5013666;28;19920;-62
2023/07/07 07:26:36;;;;;;;;;;;;;;;;;;5012985;28;19910;-62
2023/07/07 07:29:01;;;;;;;;;;;;;;;;;;5013493;28;19913;-62
2023/07/07 07:31:26;;;;;;;;;;;;;;;;;;5012553;28;20015;-62
2023/07/07 07:33:51;;;;;;;;;;;;;;;;;;5014038;28;19909;-62
2023/07/07 07:36:16;;;;;;;;;;;;;;;;;;5012639;28;19913;-62
2023/07/07 07:38:41;;;;;;;;;;;;;;;;;;5013768;28;19940;-62
2023/07/07 07:41:06;;;;;;;;;;;;;;;;;;5013852;28;20303;-62
2023/07/07 07:43:32;;;;;;;;;;;;;;;;;;5012497;28;19913;-62
2023/07/07 07:45:57;;;;;;;;;;;;;;;;;;5013565;28;19905;-62
2023/07/07 07:48:22;;;;;;;;;;;;;;;;;;5012225;28;20370;-62
2023/07/07 07:50:47;;;;;;;;;;;;;;;;;;5013684;28;19909;-62
2023/07/07 07:53:12;;;;;;;;;;;;;;;;;;5012212;28;19917;-62
2023/07/07 07:55:37;;;;;;;;;;;;;;;;;;5013382;28;20368;-62
2023/07/07 07:58:03;;;;;;;;;;;;;;;;;;5012009;28;19936;-62
2023/07/07 08:00:28;;;;;;;;;;;;;;;;;;5013992;28;19905;-62
2023/07/07 08:02:53;;;;;;;;;;;;;;;;;;5011750;28;19909;-62
2023/07/07 08:05:18;;;;;;;;;;;;;;;;;;5013410;28;19917;-62
2023/07/07 08:07:43;;;;;;;;;;;;;;;;;;5011945;28;19956;-62
2023/07/07 08:10:08;;;;;;;;;;;;;;;;;;5012778;28;20371;-63
2023/07/07 08:12:33;;;;;;;;;;;;;;;;;;5012105;28;19936;-62
2023/07/07 08:14:58;;;;;;;;;;;;;;;;;;5013138;28;19912;-62
2023/07/07 08:17:23;;;;;;;;;;;;;;;;;;5011479;28;19932;-62
2023/07/07 08:19:48;;;;;;;;;;;;;;;;;;5013150;28;20360;-62
2023/07/07 08:22:13;;;;;;;;;;;;;;;;;;5011649;28;19916;-62
2023/07/07 08:24:39;;;;;;;;;;;;;;;;;;5012574;28;19913;-62
2023/07/07 08:27:04;;;;;;;;;;;;;;;;;;5017695;28;20467;-62
2023/07/07 08:29:29;;;;;;;;;;;;;;;;;;5027319;28;19917;-62
2023/07/07 08:31:54;;;;;;;;;;;;;;;;;;5010572;28;19913;-62
2023/07/07 08:34:19;;;;;;;;;;;;;;;;;;5012697;28;19909;-62
2023/07/07 08:36:44;;;;;;;;;;;;;;;;;;5011728;28;19910;-63
2023/07/07 08:39:09;;;;;;;;;;;;;;;;;;5011823;28;19906;-62
2023/07/07 08:41:34;;;;;;;;;;;;;;;;;;5013281;28;19913;-62
2023/07/07 08:43:59;;;;;;;;;;;;;;;;;;5012564;28;19906;-62
2023/07/07 08:46:24;;;;;;;;;;;;;;;;;;5017388;28;19909;-62
2023/07/07 08:48:54;;;;;;;;;;;;;;;;;;5032528;28;19971;-62
2023/07/07 08:51:19;;;;;;;;;;;;;;;;;;5014912;28;19960;-62
2023/07/07 08:53:45;;;;;;;;;;;;;;;;;;5026290;28;19913;-62
2023/07/07 08:56:10;;;;;;;;;;;;;;;;;;5014938;28;20498;-61
2023/07/07 08:58:36;;;;;;;;;;;;;;;;;;5011823;28;19996;-62
2023/07/07 09:01:01;;;;;;;;;;;;;;;;;;5011738;28;19952;-62
2023/07/07 09:03:26;;;;;;;;;;;;;;;;;;5008615;28;19918;-62
2023/07/07 09:05:51;;;;;;;;;;;;;;;;;;5002169;28;20012;-62
2023/07/07 09:08:17;;;;;;;;;;;;;;;;;;4990188;28;20377;-61
2023/07/07 09:10:42;;;;;;;;;;;;;;;;;;4992720;28;19917;-62
2023/07/07 09:13:07;;;;;;;;;;;;;;;;;;4991271;28;19909;-62
2023/07/07 09:15:32;;;;;;;;;;;;;;;;;;4992232;28;19956;-62
2023/07/07 09:17:58;;;;;;;;;;;;;;;;;;4990964;28;19910;-62
2023/07/07 09:20:23;;;;;;;;;;;;;;;;;;4992476;28;19906;-62
2023/07/07 09:22:48;;;;;;;;;;;;;;;;;;4990885;28;19910;-62
2023/07/07 09:25:13;;;;;;;;;;;;;;;;;;4992190;28;19967;-61
2023/07/07 09:27:38;;;;;;;;;;;;;;;;;;4990758;28;19910;-61
2023/07/07 09:30:03;;;;;;;;;;;;;;;;;;4991777;28;19909;-62
2023/07/07 09:32:28;;;;;;;;;;;;;;;;;;4990898;28;20009;-62
2023/07/07 09:34:53;;;;;;;;;;;;;;;;;;4992286;28;19906;-62
2023/07/07 09:37:18;;;;;;;;;;;;;;;;;;4990553;28;19910;-62
2023/07/07 09:39:44;;;;;;;;;;;;;;;;;;4992201;28;19956;-62
2023/07/07 09:42:09;;;;;;;;;;;;;;;;;;4990923;28;19993;-62
2023/07/07 09:44:34;;;;;;;;;;;;;;;;;;4991860;28;20009;-62
2023/07/07 09:47:00;;;;;;;;;;;;;;;;;;5007791;28;19916;-62
2023/07/07 09:49:26;;;;;;;;;;;;;;;;;;5011938;28;20406;-62
2023/07/07 09:51:51;;;;;;;;;;;;;;;;;;5009921;28;19916;-62
2023/07/07 09:54:16;;;;;;;;;;;;;;;;;;5011122;28;19906;-62
2023/07/07 09:56:41;;;;;;;;;;;;;;;;;;5010446;28;19913;-62
2023/07/07 09:59:06;;;;;;;;;;;;;;;;;;5011530;28;20372;-62
2023/07/07 10:01:32;;;;;;;;;;;;;;;;;;5009898;28;19913;-62
2023/07/07 10:03:57;;;;;;;;;;;;;;;;;;5011478;28;20336;-62
2023/07/07 10:06:22;;;;;;;;;;;;;;;;;;5009918;28;19921;-61
2023/07/07 10:08:47;;;;;;;;;;;;;;;;;;5010396;28;19909;-62
2023/07/07 10:11:12;;;;;;;;;;;;;;;;;;5009429;28;19913;-62
2023/07/07 10:13:37;;;;;;;;;;;;;;;;;;5011656;28;19985;-62
2023/07/07 10:16:02;;;;;;;;;;;;;;;;;;5010916;28;19914;-62
2023/07/07 10:18:28;;;;;;;;;;;;;;;;;;5010023;28;20305;-62
2023/07/07 10:20:53;;;;;;;;;;;;;;;;;;5010412;28;19916;-62
2023/07/07 10:23:18;;;;;;;;;;;;;;;;;;5007957;28;19920;-68
2023/07/07 10:25:43;;;;;;;;;;;;;;;;;;5010917;28;19979;-64
2023/07/07 10:28:08;;;;;;;;;;;;;;;;;;5009399;28;20020;-61
2023/07/07 10:30:33;;;;;;;;;;;;;;;;;;5010986;28;19909;-61
2023/07/07 10:32:58;;;;;;;;;;;;;;;;;;5009775;28;20397;-61
2023/07/07 10:35:23;;;;;;;;;;;;;;;;;;5011186;28;19910;-61
2023/07/07 10:37:48;;;;;;;;;;;;;;;;;;5009295;28;19909;-61
2023/07/07 10:40:13;;;;;;;;;;;;;;;;;;5010948;28;19906;-61
2023/07/07 10:42:39;;;;;;;;;;;;;;;;;;5008488;28;19918;-61
2023/07/07 10:45:04;;;;;;;;;;;;;;;;;;5010439;28;19932;-61
2023/07/07 10:47:29;;;;;;;;;;;;;;;;;;5009728;28;20300;-61
2023/07/07 10:49:56;;;;;;;;;;;;;;;;;;5010449;28;20288;-62
2023/07/07 10:52:21;;;;;;;;;;;;;;;;;;5009718;28;19909;-61
2023/07/07 10:54:46;;;;;;;;;;;;;;;;;;5011048;28;19928;-61
2023/07/07 10:57:11;;;;;;;;;;;;;;;;;;5009623;28;20044;-61
2023/07/07 10:59:36;;;;;;;;;;;;;;;;;;5010360;28;19909;-61
2023/07/07 11:02:01;;;;;;;;;;;;;;;;;;5009541;28;19920;-62
2023/07/07 11:04:26;;;;;;;;;;;;;;;;;;5014176;28;19906;-62
2023/07/07 11:06:52;;;;;;;;;;;;;;;;;;5012522;28;20008;-62
2023/07/07 11:09:17;;;;;;;;;;;;;;;;;;5014010;28;20348;-62
2023/07/07 11:11:42;;;;;;;;;;;;;;;;;;5013291;28;19968;-61
2023/07/07 11:14:07;;;;;;;;;;;;;;;;;;5013449;28;19964;-62
2023/07/07 11:16:33;;;;;;;;;;;;;;;;;;5013191;28;19919;-61
2023/07/07 11:18:58;;;;;;;;;;;;;;;;;;5014429;28;19956;-61
2023/07/07 11:21:23;;;;;;;;;;;;;;;;;;5012894;28;19971;-61
2023/07/07 11:23:48;;;;;;;;;;;;;;;;;;5013765;28;19913;-62
2023/07/07 11:26:13;;;;;;;;;;;;;;;;;;5012461;28;19931;-61
2023/07/07 11:28:38;;;;;;;;;;;;;;;;;;5013579;28;19913;-61
2023/07/07 11:31:03;;;;;;;;;;;;;;;;;;5013502;28;20379;-62
2023/07/07 11:33:29;;;;;;;;;;;;;;;;;;5010481;28;20000;-61
2023/07/07 11:35:54;;;;;;;;;;;;;;;;;;5011906;28;20359;-61
2023/07/07 11:38:19;;;;;;;;;;;;;;;;;;5012305;28;19928;-62
2023/07/07 11:40:44;;;;;;;;;;;;;;;;;;5013521;28;20264;-61
2023/07/07 11:43:09;;;;;;;;;;;;;;;;;;5011515;28;19917;-62
2023/07/07 11:45:34;;;;;;;;;;;;;;;;;;5013883;28;20039;-62
2023/07/07 11:48:00;;;;;;;;;;;;;;;;;;5011777;28;19913;-62
2023/07/07 11:50:25;;;;;;;;;;;;;;;;;;5013242;28;19916;-61
2023/07/07 11:52:50;;;;;;;;;;;;;;;;;;5011927;28;19914;-62
2023/07/07 11:55:15;;;;;;;;;;;;;;;;;;5013278;28;19913;-62
2023/07/07 11:57:40;;;;;;;;;;;;;;;;;;5011632;28;20408;-61
2023/07/07 12:00:05;;;;;;;;;;;;;;;;;;5012943;28;19909;-61
2023/07/07 12:02:30;;;;;;;;;;;;;;;;;;5011931;28;19921;-60
2023/07/07 12:04:55;;;;;;;;;;;;;;;;;;5012809;28;19932;-60
2023/07/07 12:07:20;;;;;;;;;;;;;;;;;;5011213;28;20361;-61
2023/07/07 12:09:45;;;;;;;;;;;;;;;;;;5012251;28;20000;-60
2023/07/07 12:12:11;;;;;;;;;;;;;;;;;;5011324;28;19913;-61
2023/07/07 12:14:36;;;;;;;;;;;;;;;;;;5012564;28;20356;-60
2023/07/07 12:17:01;;;;;;;;;;;;;;;;;;5011547;28;19910;-61
2023/07/07 12:19:26;;;;;;;;;;;;;;;;;;5012156;28;19913;-61
2023/07/07 12:21:51;;;;;;;;;;;;;;;;;;5010427;28;19921;-61
2023/07/07 12:24:16;;;;;;;;;;;;;;;;;;5012571;28;19917;-60
2023/07/07 12:26:41;;;;;;;;;;;;;;;;;;5011177;28;19924;-60
2023/07/07 12:29:06;;;;;;;;;;;;;;;;;;5012158;28;19932;-61
2023/07/07 12:31:31;;;;;;;;;;;;;;;;;;5014909;28;19951;-60
2023/07/07 12:33:56;;;;;;;;;;;;;;;;;;5011894;28;20315;-61
2023/07/07 12:36:21;;;;;;;;;;;;;;;;;;5010057;28;19909;-60
2023/07/07 12:38:47;;;;;;;;;;;;;;;;;;5016487;28;19924;-61
2023/07/07 12:41:12;;;;;;;;;;;;;;;;;;5012138;28;19921;-59
2023/07/07 12:43:37;;;;;;;;;;;;;;;;;;5011616;28;19906;-60
2023/07/07 12:46:02;;;;;;;;;;;;;;;;;;5020355;28;19967;-61
2023/07/07 12:48:28;;;;;;;;;;;;;;;;;;5013678;28;19913;-61
2023/07/07 12:50:53;;;;;;;;;;;;;;;;;;5029284;28;19913;-61
2023/07/07 12:53:18;;;;;;;;;;;;;;;;;;5014321;28;19913;-61
2023/07/07 12:55:43;;;;;;;;;;;;;;;;;;5011386;28;20440;-62
2023/07/07 12:58:08;;;;;;;;;;;;;;;;;;5009261;28;19913;-62
2023/07/07 13:00:33;;;;;;;;;;;;;;;;;;5012766;28;19928;-62
2023/07/07 13:02:58;;;;;;;;;;;;;;;;;;5010246;28;19914;-62
2023/07/07 13:05:23;;;;;;;;;;;;;;;;;;5008309;28;20380;-62
2023/07/07 13:07:48;;;;;;;;;;;;;;;;;;5011293;28;20004;-62
2023/07/07 13:10:13;;;;;;;;;;;;;;;;;;5018214;28;20395;-62
2023/07/07 13:12:40;;;;;;;;;;;;;;;;;;5029368;28;19921;-62
2023/07/07 13:15:06;;;;;;;;;;;;;;;;;;5031325;28;19905;-62
2023/07/07 13:17:31;;;;;;;;;;;;;;;;;;5027276;28;19924;-62
2023/07/07 13:19:56;;;;;;;;;;;;;;;;;;5010122;28;19948;-62
2023/07/07 13:22:22;;;;;;;;;;;;;;;;;;5008376;28;19910;-62
2023/07/07 13:24:47;;;;;;;;;;;;;;;;;;5014148;28;20455;-62
2023/07/07 13:27:12;;;;;;;;;;;;;;;;;;5007459;28;19921;-62
2023/07/07 13:29:37;;;;;;;;;;;;;;;;;;5010279;28;19913;-62
2023/07/07 13:32:02;;;;;;;;;;;;;;;;;;5008545;28;20296;-62
2023/07/07 13:34:28;;;;;;;;;;;;;;;;;;5011215;28;19932;-62
2023/07/07 13:36:53;;;;;;;;;;;;;;;;;;5009678;28;19913;-62
2023/07/07 13:39:18;;;;;;;;;;;;;;;;;;5023624;28;19966;-62
2023/07/07 13:41:44;;;;;;;;;;;;;;;;;;5012361;28;20374;-62
2023/07/07 13:44:09;;;;;;;;;;;;;;;;;;5018759;28;19913;-62
2023/07/07 13:46:34;;;;;;;;;;;;;;;;;;5010277;28;19913;-62
2023/07/07 13:49:02;;;;;;;;;;;;;;;;;;5028654;28;20004;-62
2023/07/07 13:51:27;;;;;;;;;;;;;;;;;;5024800;28;19964;-61
2023/07/07 13:53:52;;;;;;;;;;;;;;;;;;5013901;28;19912;-62
2023/07/07 13:56:17;;;;;;;;;;;;;;;;;;5019406;28;19944;-62
2023/07/07 13:58:42;;;;;;;;;;;;;;;;;;5011363;28;19910;-62
2023/07/07 14:01:07;;;;;;;;;;;;;;;;;;5011407;28;19909;-62
2023/07/07 14:03:33;;;;;;;;;;;;;;;;;;5009624;28;19918;-62
2023/07/07 14:05:58;;;;;;;;;;;;;;;;;;5011638;28;19952;-62
2023/07/07 14:08:23;;;;;;;;;;;;;;;;;;5010368;28;19916;-62
2023/07/07 14:10:48;;;;;;;;;;;;;;;;;;5013930;28;20016;-62
2023/07/07 14:13:13;;;;;;;;;;;;;;;;;;5008320;28;19913;-62
2023/07/07 14:15:38;;;;;;;;;;;;;;;;;;5010306;28;19955;-62
2023/07/07 14:18:04;;;;;;;;;;;;;;;;;;5009135;28;19920;-62
2023/07/07 14:20:29;;;;;;;;;;;;;;;;;;5009421;28;19916;-62
2023/07/07 14:22:56;;;;;;;;;;;;;;;;;;5008164;28;20384;-62
2023/07/07 14:25:22;;;;;;;;;;;;;;;;;;5010504;28;19906;-62
2023/07/07 14:27:47;;;;;;;;;;;;;;;;;;5009242;28;19909;-62
2023/07/07 14:30:12;;;;;;;;;;;;;;;;;;5011076;28;19917;-62
2023/07/07 14:32:37;;;;;;;;;;;;;;;;;;5008656;28;19935;-62
2023/07/07 14:35:02;;;;;;;;;;;;;;;;;;5009905;28;19913;-62
2023/07/07 14:37:27;;;;;;;;;;;;;;;;;;5007772;28;19957;-62
2023/07/07 14:39:54;;;;;;;;;;;;;;;;;;5011627;28;20376;-62
2023/07/07 14:42:19;;;;;;;;;;;;;;;;;;5011543;28;19913;-62
2023/07/07 14:44:45;;;;;;;;;;;;;;;;;;5012847;28;19985;-62
2023/07/07 14:47:10;;;;;;;;;;;;;;;;;;5010759;28;20329;-62
2023/07/07 14:49:35;;;;;;;;;;;;;;;;;;5013000;28;19932;-62
2023/07/07 14:52:00;;;;;;;;;;;;;;;;;;5009708;28;19913;-62
2023/07/07 14:54:26;;;;;;;;;;;;;;;;;;5013685;28;19952;-63
2023/07/07 14:56:52;;;;;;;;;;;;;;;;;;5012298;28;19924;-63
2023/07/07 14:59:17;;;;;;;;;;;;;;;;;;5014838;28;19909;-62
2023/07/07 15:01:42;;;;;;;;;;;;;;;;;;5013153;28;19918;-61
2023/07/07 15:04:07;;;;;;;;;;;;;;;;;;5012426;28;20402;-62
2023/07/07 15:06:33;;;;;;;;;;;;;;;;;;5011778;28;19929;-62
2023/07/07 15:08:58;;;;;;;;;;;;;;;;;;5012451;28;19964;-62
2023/07/07 15:11:23;;;;;;;;;;;;;;;;;;5010408;28;20526;-62
2023/07/07 15:13:48;;;;;;;;;;;;;;;;;;5012258;28;19913;-62
2023/07/07 15:16:13;;;;;;;;;;;;;;;;;;5011549;28;19909;-61
2023/07/07 15:18:38;;;;;;;;;;;;;;;;;;5013233;28;19905;-62
2023/07/07 15:21:03;;;;;;;;;;;;;;;;;;5013455;28;19915;-62
2023/07/07 15:23:28;;;;;;;;;;;;;;;;;;5012338;28;19916;-62
2023/07/07 15:25:53;;;;;;;;;;;;;;;;;;5013201;28;20284;-62
2023/07/07 15:28:18;;;;;;;;;;;;;;;;;;5013013;28;20388;-62
2023/07/07 15:30:43;;;;;;;;;;;;;;;;;;5013696;28;19916;-62
2023/07/07 15:33:08;;;;;;;;;;;;;;;;;;5012039;28;19914;-62
2023/07/07 15:35:34;;;;;;;;;;;;;;;;;;5013883;28;20348;-62
2023/07/07 15:37:59;;;;;;;;;;;;;;;;;;5011801;28;19953;-62
2023/07/07 15:40:24;;;;;;;;;;;;;;;;;;5013236;28;19907;-62
2023/07/07 15:42:49;;;;;;;;;;;;;;;;;;5011954;28;20495;-62
2023/07/07 15:45:14;;;;;;;;;;;;;;;;;;5013719;28;19905;-62
2023/07/07 15:47:40;;;;;;;;;;;;;;;;;;5012053;28;20004;-62
2023/07/07 15:50:05;;;;;;;;;;;;;;;;;;5013407;28;19957;-62
2023/07/07 15:52:30;;;;;;;;;;;;;;;;;;5012685;28;19916;-62
2023/07/07 15:54:55;;;;;;;;;;;;;;;;;;5013069;28;19906;-62
2023/07/07 15:57:20;;;;;;;;;;;;;;;;;;5011215;28;20392;-62
2023/07/07 15:59:46;;;;;;;;;;;;;;;;;;5013391;28;19912;-68
2023/07/07 16:02:11;;;;;;;;;;;;;;;;;;5011723;28;20220;-62
2023/07/07 16:04:36;;;;;;;;;;;;;;;;;;5013223;28;20273;-62
2023/07/07 16:07:01;;;;;;;;;;;;;;;;;;5011801;28;19963;-62
2023/07/07 16:09:26;;;;;;;;;;;;;;;;;;5013074;28;19937;-62
2023/07/07 16:11:52;;;;;;;;;;;;;;;;;;5012008;28;20388;-62
2023/07/07 16:14:17;;;;;;;;;;;;;;;;;;5013552;28;19995;-63
2023/07/07 16:16:44;;;;;;;;;;;;;;;;;;5011491;28;19921;-62
2023/07/07 16:19:10;;;;;;;;;;;;;;;;;;5013056;28;19964;-62
2023/07/07 16:21:35;;;;;;;;;;;;;;;;;;5011159;28;19913;-62
2023/07/07 16:24:00;;;;;;;;;;;;;;;;;;5013144;28;20361;-62
2023/07/07 16:26:25;;;;;;;;;;;;;;;;;;5011291;28;19940;-62
2023/07/07 16:28:50;;;;;;;;;;;;;;;;;;5012951;28;19996;-62
2023/07/07 16:31:16;;;;;;;;;;;;;;;;;;5011427;28;19909;-62